Time;durP1;ratioP1;P1;durP2;ratioP2;P2;SDS_P1;SDS_P2;PMS_P1;PMS_P2;Temp;Humidity;BMP_temperature;BMP_pressure;BME280_temperature;BME280_humidity;BME280_pressure;Samples;Min_cycle;Max_cycle;Signal;HPM_P1;HPM_P2
2021/07/27 00:01:01;;;;;;;11.25;9.60;;;;;;;28.74;50.08;100132.27;1680002;84;21117;-61
2021/07/27 00:03:28;;;;;;;11.08;9.98;;;;;;;28.73;50.03;100124.63;1636444;84;21092;-63
2021/07/27 00:05:56;;;;;;;10.75;9.43;;;;;;;28.74;50.00;100126.80;1680343;83;21037;-62
2021/07/27 00:08:23;;;;;;;11.00;9.73;;;;;;;28.72;50.06;100125.71;1682872;83;21121;-63
2021/07/27 00:10:49;;;;;;;10.95;8.75;;;;;;;28.72;50.06;100127.63;1684742;83;21103;-63
2021/07/27 00:13:16;;;;;;;11.40;9.33;;;;;;;28.70;49.95;100122.44;1717079;82;21130;-65
2021/07/27 00:15:43;;;;;;;10.90;9.50;;;;;;;28.70;49.96;100119.70;1716559;82;21078;-62
2021/07/27 00:18:09;;;;;;;10.90;9.85;;;;;;;28.70;50.03;100121.08;1716518;82;21615;-61
2021/07/27 00:20:36;;;;;;;12.73;9.15;;;;;;;28.70;49.99;100123.00;1681263;83;21085;-63
2021/07/27 00:23:02;;;;;;;11.10;10.18;;;;;;;28.69;50.02;100116.72;1682134;83;21267;-61
2021/07/27 00:25:29;;;;;;;11.18;9.98;;;;;;;28.68;50.08;100112.34;1680902;85;22189;-62
2021/07/27 00:27:55;;;;;;;11.40;10.20;;;;;;;28.67;50.04;100110.72;1684549;83;21049;-62
2021/07/27 00:30:22;;;;;;;10.65;9.08;;;;;;;28.66;50.15;100111.80;1682396;84;21030;-61
2021/07/27 00:32:48;;;;;;;11.33;10.13;;;;;;;28.66;50.10;100115.90;1679858;83;21135;-60
2021/07/27 00:35:16;;;;;;;10.30;9.25;;;;;;;28.64;50.08;100114.00;1681687;84;21056;-60
2021/07/27 00:37:44;;;;;;;10.48;9.43;;;;;;;28.63;50.16;100102.81;1681473;83;21151;-63
2021/07/27 00:40:12;;;;;;;11.75;9.65;;;;;;;28.63;50.04;100105.55;1687988;84;21076;-62
2021/07/27 00:42:46;;;;;;;12.18;9.90;;;;;;;28.62;50.02;100107.44;1686696;83;21080;-62
2021/07/27 00:45:13;;;;;;;11.80;10.63;;;;;;;28.61;50.00;100104.45;1682171;83;21060;-62
2021/07/27 00:47:39;;;;;;;11.68;9.78;;;;;;;28.60;50.04;100104.72;1708879;82;21050;-61
2021/07/27 00:50:08;;;;;;;10.43;9.43;;;;;;;28.60;50.12;100107.45;1710675;82;22011;-62
2021/07/27 00:52:36;;;;;;;10.60;9.38;;;;;;;28.58;50.14;100106.36;1709688;82;21517;-61
2021/07/27 00:55:05;;;;;;;11.57;9.30;;;;;;;28.57;50.19;100102.01;1712701;82;21050;-61
2021/07/27 00:57:32;;;;;;;12.73;10.65;;;;;;;28.57;50.13;100102.01;1706034;82;21069;-62
2021/07/27 00:59:58;;;;;;;10.43;9.43;;;;;;;28.57;50.12;100108.03;1711117;82;21038;-61
2021/07/27 01:02:24;;;;;;;12.75;10.53;;;;;;;28.56;50.11;100109.92;1705285;82;21120;-61
2021/07/27 01:04:50;;;;;;;11.97;10.13;;;;;;;28.56;50.10;100103.65;1709687;82;21101;-61
2021/07/27 01:07:18;;;;;;;9.70;8.70;;;;;;;28.56;50.10;100105.83;1707238;82;21050;-60
2021/07/27 01:09:45;;;;;;;11.50;10.20;;;;;;;28.55;50.13;100106.94;1723313;83;21075;-61
2021/07/27 01:12:11;;;;;;;11.57;9.35;;;;;;;28.56;50.15;100105.02;1692100;83;21972;-62
2021/07/27 01:14:39;;;;;;;11.53;10.30;;;;;;;28.55;50.12;100102.00;1693064;83;21191;-61
2021/07/27 01:17:05;;;;;;;12.23;10.43;;;;;;;28.54;50.14;100105.84;1701427;83;21122;-64
2021/07/27 01:20:45;;;;;;;10.45;9.35;;;;;;;28.53;50.19;100100.09;1701667;83;21089;-61
2021/07/27 01:43:50;;;;;;;10.72;9.20;;;;;;;28.43;49.95;100092.20;1696616;83;21084;-61
2021/07/27 01:46:18;;;;;;;11.03;9.93;;;;;;;28.42;49.96;100090.55;1692416;83;21528;-62
2021/07/27 01:48:44;;;;;;;11.18;9.80;;;;;;;28.42;49.98;100093.28;1721287;82;21025;-62
2021/07/27 01:51:17;;;;;;;10.80;9.80;;;;;;;28.41;49.93;100091.66;1690551;83;21069;-62
2021/07/27 01:53:46;;;;;;;;;;;;;;;28.41;49.90;100091.66;1708798;82;21144;-61
2021/07/27 01:56:11;;;;;;;10.85;9.63;;;;;;;28.41;49.95;100090.30;1705771;82;20206;-62
2021/07/27 01:58:38;;;;;;;10.23;9.28;;;;;;;28.34;50.03;100088.95;1716404;82;21053;-66
2021/07/27 02:01:04;;;;;;;10.88;9.63;;;;;;;28.35;49.98;100096.84;1711050;83;21537;-62
2021/07/27 02:03:31;;;;;;;11.08;9.45;;;;;;;28.36;49.96;100093.59;1709051;82;21534;-61
2021/07/27 02:05:58;;;;;;;10.48;9.48;;;;;;;28.37;49.90;100099.30;1711761;82;21157;-62
2021/07/27 02:08:24;;;;;;;13.53;12.23;;;;;;;28.36;49.91;100089.48;1705165;82;21117;-61
2021/07/27 02:10:54;;;;;;;14.13;10.90;;;;;;;28.36;49.85;100094.40;1710563;82;21069;-61
2021/07/27 02:13:30;;;;;;;11.22;10.10;;;;;;;28.35;49.86;100091.37;1706220;82;21117;-61
2021/07/27 02:15:59;;;;;;;14.00;11.53;;;;;;;28.37;49.84;100089.74;1711995;82;21097;-62
2021/07/27 02:18:26;;;;;;;11.73;10.53;;;;;;;28.37;49.86;100087.02;1713010;82;21804;-61
2021/07/27 02:20:57;;;;;;;10.98;9.98;;;;;;;28.36;49.79;100091.66;1711450;82;21560;-61
2021/07/27 02:23:27;;;;;;;11.22;9.60;;;;;;;28.36;49.83;100088.94;1721225;82;21041;-61
2021/07/27 02:25:54;;;;;;;12.70;9.95;;;;;;;28.35;49.80;100085.91;1715461;82;21095;-62
2021/07/27 02:28:20;;;;;;;10.13;9.18;;;;;;;28.36;49.80;100093.03;1719567;82;21097;-61
2021/07/27 02:30:54;;;;;;;13.35;9.38;;;;;;;28.36;49.83;100087.57;1720184;82;21118;-60
2021/07/27 02:33:15;;;;;;;11.88;10.13;;;;;;;28.36;49.76;100088.94;1717906;82;21031;-60
2021/07/27 02:35:42;;;;;;;10.00;9.10;;;;;;;28.36;49.73;100084.84;1723091;82;21085;-61
2021/07/27 02:38:10;;;;;;;10.65;9.55;;;;;;;28.37;49.70;100084.28;1691540;83;21093;-61
2021/07/27 02:40:37;;;;;;;12.05;9.98;;;;;;;28.37;49.62;100084.28;1702825;83;21077;-61
2021/07/27 02:43:04;;;;;;;10.80;9.70;;;;;;;28.37;49.68;100080.18;1694825;83;21138;-61
2021/07/27 02:45:32;;;;;;;10.55;9.45;;;;;;;28.36;49.63;100080.73;1704553;83;21033;-62
2021/07/27 02:47:59;;;;;;;10.03;9.00;;;;;;;28.38;49.61;100092.20;1700831;83;21062;-62
2021/07/27 02:52:26;;;;;;;10.45;9.35;;;;;;;28.42;49.53;100077.44;1850063;75;22562;-63
2021/07/27 02:54:53;;;;;;;13.35;9.63;;;;;;;28.33;49.63;100073.64;1817326;77;22397;-62
2021/07/27 02:57:19;;;;;;;10.60;9.43;;;;;;;28.33;49.62;100078.55;1821080;77;21104;-62
2021/07/27 02:59:45;;;;;;;12.47;9.85;;;;;;;28.34;49.61;100073.38;1819099;77;20938;-62
2021/07/27 03:02:12;;;;;;;10.25;9.30;;;;;;;28.35;49.59;100078.28;1819270;77;20976;-62
2021/07/27 03:04:38;;;;;;;11.18;9.98;;;;;;;28.35;49.53;100076.36;1819918;77;21631;-63
2021/07/27 03:07:06;;;;;;;13.18;10.53;;;;;;;28.35;49.49;100073.63;1823988;77;21920;-62
2021/07/27 03:09:44;;;;;;;10.58;9.58;;;;;;;28.34;49.45;100076.10;1821335;77;21146;-62
2021/07/27 03:12:04;;;;;;;10.88;9.88;;;;;;;28.34;49.44;100077.47;1820254;77;21481;-61
2021/07/27 03:14:30;;;;;;;11.73;9.58;;;;;;;28.35;49.44;100074.98;1825977;77;21598;-62
2021/07/27 03:16:59;;;;;;;11.05;9.15;;;;;;;28.34;49.41;100079.39;1818602;77;21315;-62
2021/07/27 03:19:25;;;;;;;10.78;9.43;;;;;;;28.34;49.27;100080.20;1824713;77;21134;-62
2021/07/27 03:21:52;;;;;;;11.60;9.73;;;;;;;28.33;49.25;100078.55;1826311;77;21140;-61
2021/07/27 03:24:18;;;;;;;10.32;9.43;;;;;;;28.33;49.30;100079.91;1818807;77;22463;-61
2021/07/27 03:26:45;;;;;;;11.95;9.73;;;;;;;28.32;49.34;100087.86;1820202;77;21477;-60
2021/07/27 03:29:11;;;;;;;10.72;9.63;;;;;;;28.32;49.34;100089.75;1828424;77;20981;-61
2021/07/27 03:31:38;;;;;;;10.48;9.48;;;;;;;28.32;49.34;100089.75;1816115;77;20986;-62
2021/07/27 03:34:04;;;;;;;10.93;9.80;;;;;;;28.30;49.36;100084.59;1822737;77;21094;-61
2021/07/27 03:36:32;;;;;;;13.00;9.98;;;;;;;28.32;49.33;100090.59;1823318;77;21046;-61
2021/07/27 03:38:59;;;;;;;11.35;10.35;;;;;;;28.31;49.35;100088.94;1826053;77;21594;-62
2021/07/27 03:41:25;;;;;;;10.85;9.75;;;;;;;28.30;49.34;100087.32;1820652;77;21473;-62
2021/07/27 03:43:53;;;;;;;10.75;9.65;;;;;;;28.31;49.40;100084.84;1820490;77;21510;-60
2021/07/27 03:46:19;;;;;;;11.55;9.95;;;;;;;28.32;49.41;100087.02;1823699;77;21096;-61
2021/07/27 03:48:45;;;;;;;14.43;10.15;;;;;;;28.30;49.43;100079.12;1822759;77;21086;-62
2021/07/27 03:51:13;;;;;;;11.90;10.53;;;;;;;28.31;49.48;100084.84;1821551;77;21034;-62
2021/07/27 03:53:40;;;;;;;10.70;9.73;;;;;;;28.31;49.47;100082.11;1808031;77;21024;-61
2021/07/27 03:56:13;;;;;;;10.40;9.38;;;;;;;28.32;49.40;100076.93;1804557;77;21060;-62
2021/07/27 03:58:43;;;;;;;11.75;9.78;;;;;;;28.31;49.41;100080.74;1811225;77;21137;-61
2021/07/27 04:01:08;;;;;;;10.25;9.25;;;;;;;28.31;49.44;100078.01;1806739;77;21052;-62
2021/07/27 04:03:34;;;;;;;10.85;9.80;;;;;;;28.30;49.50;100075.03;1813766;77;20993;-62
2021/07/27 04:06:00;;;;;;;10.93;9.70;;;;;;;28.32;49.43;100077.45;1807603;77;21050;-61
2021/07/27 04:08:27;;;;;;;11.18;9.98;;;;;;;28.31;49.52;100078.01;1809300;77;21038;-61
2021/07/27 04:10:59;;;;;;;10.40;9.40;;;;;;;28.32;49.47;100071.99;1809390;77;21014;-61
2021/07/27 04:13:25;;;;;;;11.03;9.93;;;;;;;28.32;49.51;100073.36;1813300;77;20994;-61
2021/07/27 04:15:52;;;;;;;10.13;9.20;;;;;;;28.30;49.50;100066.83;1807762;77;22262;-62
2021/07/27 04:18:19;;;;;;;10.72;9.63;;;;;;;28.31;49.47;100071.18;1807972;77;21581;-60
2021/07/27 04:20:45;;;;;;;11.20;9.95;;;;;;;28.31;49.46;100067.09;1810790;77;21055;-62
2021/07/27 04:23:15;;;;;;;10.70;9.70;;;;;;;28.32;49.42;100066.53;1808673;77;21853;-64
2021/07/27 04:25:47;;;;;;;11.83;10.23;;;;;;;28.33;49.45;100066.25;1813428;77;21084;-61
2021/07/27 04:28:13;;;;;;;11.25;10.15;;;;;;;28.34;49.39;100070.64;1819632;77;21124;-61
2021/07/27 04:30:40;;;;;;;10.28;9.38;;;;;;;28.34;49.38;100072.56;1811311;77;21061;-61
2021/07/27 04:33:06;;;;;;;11.20;10.20;;;;;;;28.34;49.38;100066.54;1811177;77;21021;-62
2021/07/27 04:35:32;;;;;;;11.15;9.55;;;;;;;28.35;49.40;100064.62;1810934;77;21745;-61
2021/07/27 04:37:59;;;;;;;10.80;9.78;;;;;;;28.36;49.39;100067.63;1810603;77;21527;-61
2021/07/27 04:40:26;;;;;;;11.43;9.83;;;;;;;28.36;49.33;100061.61;1813094;77;21022;-61
2021/07/27 04:42:52;;;;;;;11.22;10.13;;;;;;;28.37;49.28;100061.87;1807369;77;21092;-61
2021/07/27 04:45:19;;;;;;;10.68;9.20;;;;;;;28.38;49.19;100055.88;1815529;77;21022;-62
2021/07/27 04:47:45;;;;;;;11.45;10.28;;;;;;;28.40;49.15;100064.05;1816518;77;21145;-62
2021/07/27 04:50:12;;;;;;;11.57;10.20;;;;;;;28.41;49.14;100057.50;1749859;80;21213;-61
2021/07/27 04:52:41;;;;;;;11.30;10.10;;;;;;;28.42;49.05;100057.76;1813749;77;21406;-61
2021/07/27 04:55:09;;;;;;;12.00;10.43;;;;;;;28.46;49.00;100066.22;1807316;77;21062;-61
2021/07/27 04:57:36;;;;;;;10.95;10.00;;;;;;;28.46;48.96;100056.66;1802774;77;21010;-62
2021/07/27 05:00:25;;;;;;;10.15;9.13;;;;;;;28.48;48.96;100055.02;1810704;77;21155;-62
2021/07/27 05:02:51;;;;;;;11.73;10.60;;;;;;;28.49;48.92;100056.11;1816393;77;21124;-61
2021/07/27 05:05:18;;;;;;;11.05;9.78;;;;;;;28.49;48.92;100061.58;1813582;77;21097;-63
2021/07/27 05:07:45;;;;;;;10.03;9.03;;;;;;;28.52;48.90;100058.30;1812287;77;21078;-62
2021/07/27 05:10:12;;;;;;;10.80;9.70;;;;;;;28.54;48.88;100058.02;1818103;77;22374;-63
2021/07/27 05:12:39;;;;;;;10.45;9.45;;;;;;;28.56;48.81;100062.66;1812167;77;21083;-63
2021/07/27 05:15:06;;;;;;;10.78;9.70;;;;;;;28.56;48.72;100059.37;1817014;77;21948;-61
2021/07/27 05:17:35;;;;;;;11.00;9.88;;;;;;;28.58;48.53;100056.36;1808499;77;21037;-60
2021/07/27 05:20:03;;;;;;;11.10;9.50;;;;;;;28.60;48.44;100052.80;1803564;77;21095;-62
2021/07/27 05:22:29;;;;;;;10.45;9.45;;;;;;;28.62;48.45;100054.70;1809247;77;21069;-61
2021/07/27 05:24:56;;;;;;;10.00;9.03;;;;;;;28.64;48.46;100057.97;1806405;77;21797;-62
2021/07/27 05:27:24;;;;;;;14.45;9.78;;;;;;;28.67;48.46;100056.05;1811841;77;21087;-61
2021/07/27 05:29:51;;;;;;;10.90;9.85;;;;;;;28.69;48.36;100062.61;1811406;77;21614;-62
2021/07/27 05:32:18;;;;;;;10.95;9.85;;;;;;;28.70;48.18;100059.57;1813216;77;21194;-61
2021/07/27 05:34:44;;;;;;;11.63;9.60;;;;;;;28.71;48.06;100062.59;1808982;77;21036;-61
2021/07/27 05:37:11;;;;;;;13.70;9.33;;;;;;;28.73;47.85;100065.86;1808863;77;21286;-62
2021/07/27 05:39:37;;;;;;;11.73;9.50;;;;;;;28.75;47.79;100074.59;1803637;77;21015;-61
2021/07/27 05:42:04;;;;;;;11.75;10.55;;;;;;;28.75;47.73;100059.55;1808463;77;20979;-61
2021/07/27 05:44:30;;;;;;;11.22;10.20;;;;;;;28.77;47.68;100064.75;1814336;77;21105;-61
2021/07/27 05:46:57;;;;;;;10.60;9.48;;;;;;;28.79;47.69;100070.19;1808780;77;21054;-61
2021/07/27 05:49:25;;;;;;;11.18;10.08;;;;;;;28.81;47.60;100076.75;1748296;80;21031;-61
2021/07/27 05:51:52;;;;;;;10.63;9.65;;;;;;;28.82;47.33;100062.00;1754738;79;21080;-62
2021/07/27 05:54:19;;;;;;;10.38;9.30;;;;;;;28.84;47.41;100066.63;1756158;79;21525;-60
2021/07/27 05:56:47;;;;;;;10.75;9.68;;;;;;;28.86;47.64;100069.06;1758863;79;21058;-61
2021/07/27 05:59:16;;;;;;;10.78;9.63;;;;;;;28.90;47.95;100063.33;1761251;79;21003;-61
2021/07/27 06:01:42;;;;;;;11.30;10.18;;;;;;;28.93;47.95;100070.94;1753089;79;21298;-60
2021/07/27 06:04:09;;;;;;;10.45;9.43;;;;;;;28.95;47.93;100073.66;1748719;79;21068;-61
2021/07/27 06:06:36;;;;;;;9.95;9.13;;;;;;;28.99;47.94;100071.17;1750713;79;21796;-60
2021/07/27 06:09:06;;;;;;;12.58;10.23;;;;;;;29.02;47.98;100062.41;1749520;79;21070;-61
2021/07/27 06:11:34;;;;;;;10.75;9.00;;;;;;;29.05;48.03;100057.73;1763620;79;21001;-60
2021/07/27 06:14:01;;;;;;;11.15;10.08;;;;;;;29.08;47.85;100063.20;1756549;79;21168;-61
2021/07/27 06:16:28;;;;;;;12.68;9.93;;;;;;;29.09;47.21;100059.35;1749422;79;21053;-60
2021/07/27 06:18:55;;;;;;;14.75;10.10;;;;;;;29.12;46.86;100063.73;1762357;79;21031;-62
2021/07/27 06:21:21;;;;;;;11.35;9.83;;;;;;;29.14;46.59;100064.83;1752628;79;21093;-64
2021/07/27 06:23:47;;;;;;;17.52;12.05;;;;;;;29.15;46.88;100061.81;1768932;79;21025;-64
2021/07/27 06:26:13;;;;;;;16.40;12.13;;;;;;;29.17;46.48;100053.33;1826874;77;21087;-64
2021/07/27 06:28:40;;;;;;;17.70;11.12;;;;;;;29.20;46.16;100060.95;1820643;77;21060;-63
2021/07/27 06:31:11;;;;;;;11.03;9.78;;;;;;;29.21;46.38;100059.86;1829876;77;21068;-61
2021/07/27 06:33:35;;;;;;;22.75;9.75;;;;;;;29.24;46.81;100054.36;1824512;77;21474;-64
2021/07/27 06:36:01;;;;;;;16.90;10.55;;;;;;;29.25;46.33;100059.56;1823149;77;20998;-64
2021/07/27 06:38:28;;;;;;;13.85;10.03;;;;;;;29.27;45.76;100060.64;1817691;77;21152;-64
2021/07/27 06:40:54;;;;;;;11.78;10.32;;;;;;;29.29;45.45;100063.91;1830794;77;21531;-65
2021/07/27 06:43:20;;;;;;;11.80;10.58;;;;;;;29.30;45.07;100061.42;1824219;77;21029;-63
2021/07/27 06:45:53;;;;;;;12.73;10.20;;;;;;;29.33;44.74;100056.20;1826249;77;21058;-64
2021/07/27 06:48:21;;;;;;;11.12;9.90;;;;;;;29.35;44.64;100058.66;1818871;77;20982;-67
2021/07/27 06:50:48;;;;;;;13.48;10.35;;;;;;;29.35;44.51;100052.62;1779900;78;21098;-65
2021/07/27 06:53:14;;;;;;;16.45;10.50;;;;;;;29.37;44.61;100055.09;1735097;80;21015;-66
2021/07/27 06:55:40;;;;;;;14.58;11.03;;;;;;;29.40;44.89;100061.37;1814817;77;21073;-65
2021/07/27 06:58:07;;;;;;;14.45;10.80;;;;;;;29.41;44.45;100052.04;1810580;77;21512;-69
2021/07/27 07:00:34;;;;;;;12.40;9.95;;;;;;;29.44;44.21;100057.48;1809773;77;21042;-70
2021/07/27 07:03:01;;;;;;;11.90;10.28;;;;;;;29.45;43.80;100061.87;1813957;77;21149;-66
2021/07/27 07:05:27;;;;;;;13.75;9.63;;;;;;;29.45;43.17;100059.12;1812617;77;21029;-67
2021/07/27 07:07:55;;;;;;;17.20;10.48;;;;;;;29.48;43.55;100066.22;1806563;77;21001;-67
2021/07/27 07:10:23;;;;;;;14.40;10.08;;;;;;;29.50;43.52;100072.22;1814301;77;21022;-65
2021/07/27 07:12:51;;;;;;;12.70;9.08;;;;;;;29.51;42.87;100064.27;1808892;77;21959;-65
2021/07/27 07:15:19;;;;;;;12.65;9.65;;;;;;;29.53;42.87;100068.89;1812794;77;21907;-64
2021/07/27 07:17:46;;;;;;;12.10;9.88;;;;;;;29.54;42.45;100059.59;1814451;77;21053;-65
2021/07/27 07:20:14;;;;;;;16.23;9.65;;;;;;;29.56;42.52;100054.65;1806816;77;21131;-62
2021/07/27 07:22:40;;;;;;;10.03;9.05;;;;;;;29.58;43.08;100062.58;1815212;77;21078;-63
2021/07/27 07:25:07;;;;;;;12.73;9.98;;;;;;;29.59;43.75;100067.77;1806469;77;21592;-62
2021/07/27 07:27:34;;;;;;;14.47;9.63;;;;;;;29.60;44.02;100057.08;1813962;77;21109;-63
2021/07/27 07:30:01;;;;;;;13.70;10.35;;;;;;;29.63;44.45;100066.63;1808188;77;21049;-62
2021/07/27 07:32:27;;;;;;;10.75;9.65;;;;;;;29.64;44.25;100060.62;1808594;77;21038;-63
2021/07/27 07:34:54;;;;;;;13.05;8.83;;;;;;;29.66;44.08;100059.77;1809857;77;21029;-62
2021/07/27 07:37:20;;;;;;;12.40;9.43;;;;;;;29.66;44.15;100046.89;1809167;77;21010;-64
2021/07/27 07:39:46;;;;;;;10.65;9.55;;;;;;;29.68;43.98;100058.94;1808383;77;21473;-64
2021/07/27 07:42:13;;;;;;;12.03;9.30;;;;;;;29.69;43.95;100050.44;1813469;77;21018;-65
2021/07/27 07:44:39;;;;;;;10.98;9.78;;;;;;;29.71;44.00;100048.76;1814943;77;21085;-64
2021/07/27 07:47:05;;;;;;;10.40;8.78;;;;;;;29.72;44.01;100049.03;1806090;77;21053;-62
2021/07/27 07:49:32;;;;;;;10.50;8.95;;;;;;;29.72;43.75;100046.30;1815784;77;21057;-65
2021/07/27 07:52:00;;;;;;;10.70;9.58;;;;;;;29.73;43.53;100044.67;1807547;77;21160;-63
2021/07/27 07:54:27;;;;;;;12.35;9.20;;;;;;;29.74;43.54;100038.64;1789537;79;21021;-65
2021/07/27 07:56:53;;;;;;;11.30;10.10;;;;;;;29.75;43.42;100043.03;1789631;78;21062;-66
2021/07/27 07:59:19;;;;;;;11.53;10.32;;;;;;;29.76;43.50;100041.91;1792216;79;21536;-65
2021/07/27 08:01:48;;;;;;;11.45;9.58;;;;;;;29.77;43.32;100039.45;1792798;79;20993;-67
2021/07/27 08:04:16;;;;;;;11.18;9.40;;;;;;;29.77;43.34;100036.14;1790140;79;21011;-65
2021/07/27 08:06:42;;;;;;;11.20;9.33;;;;;;;29.78;43.50;100045.98;1798179;79;21053;-66
2021/07/27 08:09:08;;;;;;;13.28;9.03;;;;;;;29.79;43.31;100049.55;1790520;79;21445;-63
2021/07/27 08:11:35;;;;;;;14.45;9.78;;;;;;;29.80;43.20;100056.64;1796963;79;21018;-63
2021/07/27 08:14:01;;;;;;;10.55;9.43;;;;;;;29.81;43.34;100053.38;1788984;79;21096;-66
2021/07/27 08:16:29;;;;;;;11.18;9.78;;;;;;;29.82;43.40;100053.06;1792967;79;21078;-64
2021/07/27 08:18:56;;;;;;;13.08;9.98;;;;;;;29.84;43.12;100047.30;1791296;78;21029;-66
2021/07/27 08:21:25;;;;;;;11.08;9.75;;;;;;;29.84;43.16;100048.12;1789228;79;21049;-66
2021/07/27 08:23:52;;;;;;;9.73;8.93;;;;;;;29.84;42.85;100041.83;1790251;79;21111;-64
2021/07/27 08:26:18;;;;;;;10.48;9.33;;;;;;;29.84;42.37;100052.78;1791118;79;21495;-67
2021/07/27 08:28:46;;;;;;;13.58;9.55;;;;;;;29.84;41.81;100050.85;1796180;78;22171;-64
2021/07/27 08:31:13;;;;;;;13.00;9.60;;;;;;;29.84;41.19;100046.75;1791960;79;21066;-64
2021/07/27 08:33:42;;;;;;;12.18;9.35;;;;;;;29.84;40.74;100041.27;1795929;79;21025;-64
2021/07/27 08:36:09;;;;;;;12.88;10.63;;;;;;;29.83;40.16;100041.02;1789841;79;21053;-68
2021/07/27 08:38:36;;;;;;;11.35;9.68;;;;;;;29.83;39.89;100044.32;1785859;78;21014;-64
2021/07/27 08:41:04;;;;;;;13.08;9.75;;;;;;;29.81;39.66;100032.84;1791746;79;21132;-68
2021/07/27 08:43:31;;;;;;;10.58;9.25;;;;;;;29.81;39.90;100040.50;1786432;79;21066;-65
2021/07/27 08:45:57;;;;;;;10.63;9.45;;;;;;;29.82;40.01;100044.85;1794332;79;21089;-65
2021/07/27 08:48:23;;;;;;;10.63;9.03;;;;;;;29.82;39.95;100051.70;1789463;79;21563;-65
2021/07/27 08:50:50;;;;;;;11.15;9.93;;;;;;;29.82;40.11;100032.53;1792027;79;21120;-69
2021/07/27 08:53:17;;;;;;;12.30;9.33;;;;;;;29.84;40.09;100027.58;1803015;77;21116;-67
2021/07/27 08:55:43;;;;;;;10.58;9.50;;;;;;;29.86;40.33;100043.16;1809912;77;21021;-67
2021/07/27 08:58:09;;;;;;;10.82;9.18;;;;;;;29.86;40.39;100041.80;1809947;77;21050;-69
2021/07/27 09:00:35;;;;;;;12.70;9.40;;;;;;;29.87;40.63;100027.02;1811715;77;21341;-68
2021/07/27 09:03:09;;;;;;;13.00;9.63;;;;;;;29.88;41.06;100030.03;1814606;77;21121;-66
2021/07/27 09:05:37;;;;;;;10.68;9.63;;;;;;;29.90;41.40;100030.55;1807126;77;21099;-65
2021/07/27 09:08:07;;;;;;;10.38;9.48;;;;;;;29.91;42.02;100023.95;1810649;77;20980;-67
2021/07/27 09:10:33;;;;;;;12.13;9.75;;;;;;;29.93;42.45;100016.26;1810607;77;21057;-66
2021/07/27 09:13:10;;;;;;;13.45;9.18;;;;;;;29.93;42.60;100020.37;1817224;77;21475;-67
2021/07/27 09:15:40;;;;;;;9.63;8.65;;;;;;;29.95;42.50;100031.84;1770079;79;21026;-65
2021/07/27 09:18:14;;;;;;;10.00;8.45;;;;;;;29.95;42.72;100035.95;1779377;79;21074;-67
2021/07/27 09:20:44;;;;;;;10.03;8.93;;;;;;;29.99;43.04;100034.27;1778860;79;21120;-65
2021/07/27 09:23:17;;;;;;;12.18;8.93;;;;;;;30.01;43.04;100026.33;1773965;79;21613;-66
2021/07/27 09:25:51;;;;;;;9.93;8.88;;;;;;;30.01;42.95;100014.81;1777834;79;21102;-67
2021/07/27 09:28:18;;;;;;;9.93;8.73;;;;;;;30.02;42.89;100019.72;1780725;79;21027;-69
2021/07/27 09:30:46;;;;;;;20.43;8.20;;;;;;;30.03;43.02;100011.22;1786247;79;21128;-68
2021/07/27 09:33:15;;;;;;;9.13;8.18;;;;;;;30.04;43.07;100007.39;1783326;79;21022;-70
2021/07/27 09:35:44;;;;;;;9.53;8.48;;;;;;;30.06;43.03;100012.02;1767406;79;21608;-67
2021/07/27 09:38:16;;;;;;;11.03;8.63;;;;;;;30.07;42.96;100015.00;1778185;79;21556;-67
2021/07/27 09:40:58;;;;;;;9.60;8.65;;;;;;;30.09;42.93;100003.20;1774416;79;21065;-66
2021/07/27 09:43:26;;;;;;;10.98;8.33;;;;;;;30.10;42.75;100013.06;1771855;79;21146;-68
2021/07/27 09:45:55;;;;;;;9.10;8.20;;;;;;;30.12;42.37;99994.97;1773432;79;21037;-67
2021/07/27 09:48:22;;;;;;;11.05;7.92;;;;;;;30.13;42.46;99981.52;1754195;80;20991;-65
2021/07/27 09:50:52;;;;;;;10.03;8.43;;;;;;;30.15;42.58;99995.73;1807861;77;21045;-64
2021/07/27 09:53:19;;;;;;;11.45;9.00;;;;;;;30.17;42.41;100001.20;1805311;77;21066;-64
2021/07/27 09:55:45;;;;;;;47.75;20.02;;;;;;;30.21;42.14;99995.13;1801296;77;21123;-64
2021/07/27 09:58:12;;;;;;;28.35;13.28;;;;;;;29.95;98.22;100018.72;1802132;77;21539;-66
2021/07/27 10:01:02;;;;;;;18.62;11.85;;;;;;;29.84;77.73;100012.52;1807590;77;21059;-66
2021/07/27 10:03:40;;;;;;;11.18;8.75;;;;;;;29.72;63.02;99988.81;1806673;77;21051;-65
2021/07/27 10:06:06;;;;;;;9.98;8.95;;;;;;;29.65;55.26;99987.80;1806551;77;21571;-65
2021/07/27 10:08:34;;;;;;;14.25;9.03;;;;;;;29.64;51.57;99990.25;1796857;77;21100;-67
2021/07/27 10:11:12;;;;;;;9.80;8.80;;;;;;;29.70;50.95;99984.17;1797259;77;21042;-66
2021/07/27 10:13:45;;;;;;;10.65;8.23;;;;;;;29.76;49.46;99996.73;1799823;77;21033;-69
2021/07/27 10:16:22;;;;;;;10.63;8.48;;;;;;;29.81;48.68;99985.73;1791270;77;21292;-70
2021/07/27 10:18:49;;;;;;;9.75;8.83;;;;;;;29.87;48.39;99976.91;1802062;77;21041;-68
2021/07/27 10:21:26;;;;;;;8.95;7.97;;;;;;;29.92;47.04;99983.16;1798540;77;21117;-67
2021/07/27 10:23:58;;;;;;;9.55;8.53;;;;;;;29.98;45.87;99984.72;1802074;77;21558;-68
2021/07/27 10:26:32;;;;;;;10.05;8.55;;;;;;;30.04;45.07;99980.53;1796014;77;21084;-67
2021/07/27 10:28:59;;;;;;;9.35;8.25;;;;;;;30.09;44.71;99995.55;1814376;77;21029;-69
2021/07/27 10:31:40;;;;;;;14.60;8.28;;;;;;;30.14;43.83;99988.08;1805234;77;21093;-66
2021/07/27 10:34:08;;;;;;;9.95;7.92;;;;;;;30.19;43.32;99985.83;1788396;79;21751;-65
2021/07/27 10:36:40;;;;;;;13.40;11.33;;;;;;;30.24;42.90;99984.41;1765305;79;21547;-69
2021/07/27 10:39:09;;;;;;;18.55;12.60;;;;;;;30.30;42.87;99953.08;1805176;77;21060;-67
2021/07/27 10:41:44;;;;;;;18.57;15.00;;;;;;;30.36;43.10;99953.30;1798672;77;21008;-71
2021/07/27 10:44:16;;;;;;;18.92;11.73;;;;;;;30.42;42.80;99962.27;1809604;77;21108;-70
2021/07/27 10:46:45;;;;;;;11.50;9.70;;;;;;;30.48;42.49;99985.78;1803788;77;21071;-67
2021/07/27 10:49:22;;;;;;;11.53;10.03;;;;;;;30.52;42.21;99977.22;1796704;77;21545;-69
2021/07/27 10:51:51;;;;;;;15.00;8.43;;;;;;;30.60;42.15;99976.27;1794792;78;21107;-69
2021/07/27 10:54:28;;;;;;;10.75;8.13;;;;;;;30.66;41.85;99975.92;1792595;78;21014;-66
2021/07/27 10:57:03;;;;;;;10.30;8.48;;;;;;;30.72;41.52;99965.70;1792210;79;21025;-68
2021/07/27 10:59:35;;;;;;;10.88;7.92;;;;;;;30.77;41.48;99974.66;1786189;79;21066;-68
2021/07/27 11:02:12;;;;;;;13.18;8.38;;;;;;;30.84;41.40;99974.84;1786708;79;21057;-67
2021/07/27 11:04:39;;;;;;;12.43;7.60;;;;;;;30.90;41.15;99964.07;1794462;79;21037;-68
2021/07/27 11:07:16;;;;;;;12.05;7.65;;;;;;;30.96;41.14;99952.73;1789182;78;22173;-65
2021/07/27 11:09:49;;;;;;;11.53;8.40;;;;;;;31.02;40.96;99945.21;1786954;79;21057;-66
2021/07/27 11:12:39;;;;;;;11.97;7.80;;;;;;;31.08;40.53;99950.05;1790003;79;21053;-69
2021/07/27 11:15:19;;;;;;;13.13;7.78;;;;;;;31.11;40.50;99942.05;1746985;79;21737;-68
2021/07/27 11:17:51;;;;;;;11.73;7.80;;;;;;;31.13;40.50;99954.91;1790486;79;21521;-68
2021/07/27 11:20:26;;;;;;;15.15;7.40;;;;;;;31.15;40.37;99964.21;1781639;79;21022;-67
2021/07/27 11:22:55;;;;;;;8.15;7.28;;;;;;;31.15;40.17;99951.30;1786715;79;21129;-67
2021/07/27 11:25:23;;;;;;;9.35;6.83;;;;;;;31.16;39.86;99963.11;1783916;79;21270;-69
2021/07/27 11:27:51;;;;;;;10.82;7.08;;;;;;;31.15;39.77;99941.70;1786512;79;21073;-67
2021/07/27 11:30:20;;;;;;;8.50;7.60;;;;;;;31.15;39.68;99940.89;1790948;78;21069;-68
2021/07/27 11:32:49;;;;;;;7.90;7.20;;;;;;;31.14;39.58;99946.95;1792690;79;21105;-66
2021/07/27 11:35:23;;;;;;;9.63;7.53;;;;;;;31.14;39.59;99943.39;1788308;79;21028;-69
2021/07/27 11:38:04;;;;;;;10.93;7.05;;;;;;;31.12;38.51;99940.95;1791412;79;21561;-71
2021/07/27 11:40:30;;;;;;;11.60;7.10;;;;;;;31.14;37.76;99942.83;1786913;79;21021;-69
2021/07/27 11:43:06;;;;;;;9.10;7.50;;;;;;;31.14;38.23;99946.14;1785171;79;21043;-69
2021/07/27 11:45:37;;;;;;;7.92;7.12;;;;;;;31.15;38.09;99944.44;1781624;79;21524;-68